Time;durP1;ratioP1;P1;durP2;ratioP2;P2;SDS_P1;SDS_P2;PMS_P1;PMS_P2;Temp;Humidity;BMP_temperature;BMP_pressure;BME280_temperature;BME280_humidity;BME280_pressure;Samples;Min_cycle;Max_cycle;Signal;HPM_P1;HPM_P2
2023/03/21 00:01:43;;;;;;;126.63;28.38;;;8.70;99.90;;;;;;5112200;28;20063;-64
2023/03/21 00:04:09;;;;;;;127.32;28.05;;;8.80;99.90;;;;;;5112322;28;20143;-63
2023/03/21 00:06:36;;;;;;;108.68;26.85;;;8.80;99.90;;;;;;5112166;28;20431;-66
2023/03/21 00:09:02;;;;;;;126.28;29.40;;;8.90;99.90;;;;;;5110793;28;20051;-63
2023/03/21 00:11:28;;;;;;;118.90;28.63;;;9.10;99.90;;;;;;5111921;28;20051;-63
2023/03/21 00:13:57;;;;;;;114.22;27.42;;;8.80;99.90;;;;;;5110410;28;20181;-63
2023/03/21 00:16:23;;;;;;;113.78;28.40;;;8.00;99.90;;;;;;5110909;28;20539;-63
2023/03/21 00:18:51;;;;;;;98.43;25.90;;;8.70;99.90;;;;;;5112403;28;20044;-63
2023/03/21 00:21:27;;;;;;;102.43;25.85;;;8.80;99.90;;;;;;5111979;28;20052;-64
2023/03/21 00:23:54;;;;;;;100.37;27.33;;;9.00;99.90;;;;;;5112004;28;20047;-64
2023/03/21 00:26:21;;;;;;;95.18;25.35;;;9.10;99.90;;;;;;5111805;28;20072;-64
2023/03/21 00:28:47;;;;;;;89.22;24.98;;;9.00;99.90;;;;;;5111741;28;20111;-64
2023/03/21 00:31:14;;;;;;;93.45;25.35;;;9.40;99.90;;;;;;5112003;28;20182;-66
2023/03/21 00:33:39;;;;;;;93.47;25.85;;;9.00;99.90;;;;;;5112191;28;20093;-64
2023/03/21 00:36:07;;;;;;;93.85;24.13;;;9.10;99.90;;;;;;5111453;28;20075;-64
2023/03/21 00:38:33;;;;;;;98.88;25.38;;;9.10;99.90;;;;;;5111936;28;20119;-64
2023/03/21 00:40:59;;;;;;;108.78;25.88;;;9.10;99.90;;;;;;5111454;28;20069;-63
2023/03/21 00:43:28;;;;;;;106.40;27.25;;;9.10;99.90;;;;;;5111874;28;20052;-64
2023/03/21 00:45:56;;;;;;;111.10;27.17;;;9.00;99.90;;;;;;5110403;28;20081;-63
2023/03/21 00:48:22;;;;;;;117.82;27.45;;;9.00;99.90;;;;;;5113080;28;20086;-63
2023/03/21 00:50:51;;;;;;;117.05;28.52;;;9.00;99.90;;;;;;5115792;27;20090;-63
2023/03/21 00:53:17;;;;;;;139.25;31.23;;;9.00;99.90;;;;;;5115838;27;20090;-64
2023/03/21 00:55:43;;;;;;;155.95;30.48;;;9.20;99.90;;;;;;5114425;28;20546;-64
2023/03/21 00:58:09;;;;;;;138.50;31.27;;;8.60;99.90;;;;;;5115544;28;20126;-64
2023/03/21 01:00:38;;;;;;;176.43;34.42;;;8.80;99.90;;;;;;5115299;28;20051;-64
2023/03/21 01:03:06;;;;;;;181.43;32.97;;;8.60;99.90;;;;;;5115725;27;20051;-64
2023/03/21 01:08:24;;;;;;;177.02;32.78;;;9.30;99.90;;;;;;5115395;28;20054;-64
2023/03/21 01:10:50;;;;;;;196.82;34.13;;;9.10;99.90;;;;;;5115448;28;20052;-64
2023/03/21 01:13:18;;;;;;;184.75;34.58;;;8.70;99.90;;;;;;5114722;28;20134;-64
2023/03/21 01:15:47;;;;;;;190.25;33.55;;;8.80;99.90;;;;;;5115777;28;20085;-64
2023/03/21 01:18:14;;;;;;;189.68;35.67;;;9.10;99.90;;;;;;5115713;28;20118;-64
2023/03/21 01:20:44;;;;;;;205.20;37.20;;;9.00;99.90;;;;;;5114083;28;20056;-64
2023/03/21 01:23:11;;;;;;;254.65;39.78;;;9.40;99.90;;;;;;5115662;28;20131;-64
2023/03/21 01:25:36;;;;;;;265.48;38.72;;;8.90;99.90;;;;;;5115408;28;20131;-64
2023/03/21 01:28:03;;;;;;;275.65;40.75;;;9.20;99.90;;;;;;5115131;28;20572;-65
2023/03/21 01:30:28;;;;;;;261.88;40.92;;;9.00;99.90;;;;;;5115220;28;20093;-64
2023/03/21 01:32:54;;;;;;;239.95;41.17;;;9.20;99.90;;;;;;5115503;28;20083;-64
2023/03/21 01:35:20;;;;;;;250.07;40.40;;;9.10;99.90;;;;;;5115170;28;20047;-65
2023/03/21 01:37:47;;;;;;;177.38;35.13;;;8.70;99.90;;;;;;5114895;28;20089;-64
2023/03/21 01:40:23;;;;;;;189.68;34.28;;;8.90;99.90;;;;;;5115030;28;20424;-64
2023/03/21 01:42:49;;;;;;;187.07;35.33;;;9.00;99.90;;;;;;5115039;28;20059;-64
2023/03/21 01:45:52;;;;;;;165.27;33.22;;;9.40;99.90;;;;;;5115089;28;20388;-64
2023/03/21 01:48:20;;;;;;;132.50;30.02;;;8.70;99.90;;;;;;5115224;28;20474;-64
2023/03/21 01:50:46;;;;;;;126.30;28.52;;;9.30;99.90;;;;;;5114979;28;20086;-66
2023/03/21 01:53:12;;;;;;;116.03;26.98;;;9.10;99.90;;;;;;5114626;28;20077;-64
2023/03/21 01:55:38;;;;;;;114.93;27.15;;;9.10;99.90;;;;;;5114701;28;20127;-64
2023/03/21 01:58:06;;;;;;;114.93;26.75;;;9.10;99.90;;;;;;5114698;28;20035;-64
2023/03/21 02:00:33;;;;;;;115.28;26.23;;;8.30;99.90;;;;;;5114228;28;20070;-64
2023/03/21 02:03:00;;;;;;;;;;;9.20;99.90;;;;;;5115053;28;20407;-63
2023/03/21 02:05:54;;;;;;;135.27;28.40;;;9.20;99.90;;;;;;5114622;28;20465;-64
2023/03/21 02:08:22;;;;;;;136.75;28.45;;;9.10;99.90;;;;;;5114187;28;20040;-64
2023/03/21 02:10:49;;;;;;;126.90;26.92;;;9.10;99.90;;;;;;5114528;28;20047;-64
2023/03/21 02:13:15;;;;;;;131.57;27.23;;;8.80;99.90;;;;;;5114380;28;20398;-64
2023/03/21 02:15:52;;;;;;;128.75;26.27;;;9.10;99.90;;;;;;5114365;28;20116;-64
2023/03/21 02:18:25;;;;;;;136.35;27.90;;;9.50;99.90;;;;;;5114373;28;20109;-64
2023/03/21 02:21:12;;;;;;;128.45;28.55;;;9.10;99.90;;;;;;5113156;28;20044;-65
2023/03/21 02:23:38;;;;;;;;;;;9.30;99.90;;;;;;5114667;28;20040;-64
2023/03/21 02:26:23;;;;;;;199.02;34.83;;;8.70;99.90;;;;;;5114068;28;19925;-64
2023/03/21 02:28:59;;;;;;;230.27;37.40;;;8.80;99.90;;;;;;5113778;28;20569;-64
2023/03/21 02:31:55;;;;;;;226.32;38.90;;;8.90;99.90;;;;;;5114134;28;20084;-64
2023/03/21 02:34:39;;;;;;;240.60;37.72;;;8.90;99.90;;;;;;5114085;28;20044;-65
2023/03/21 02:37:07;;;;;;;237.82;38.00;;;9.30;99.90;;;;;;5113725;28;20043;-64
2023/03/21 02:39:52;;;;;;;223.60;39.03;;;8.90;99.90;;;;;;5113778;28;20134;-65
2023/03/21 02:42:55;;;;;;;238.80;39.15;;;9.40;99.90;;;;;;5113840;28;20039;-63
2023/03/21 02:45:28;;;;;;;222.70;36.30;;;9.40;99.90;;;;;;5113755;28;20055;-64
2023/03/21 02:48:05;;;;;;;210.43;36.42;;;7.10;99.90;;;;;;5113772;28;20105;-64
2023/03/21 02:50:37;;;;;;;189.35;34.92;;;8.60;99.90;;;;;;5113517;28;20229;-65
2023/03/21 02:53:06;;;;;;;188.48;34.83;;;8.60;99.90;;;;;;5112399;28;20052;-64
2023/03/21 02:55:34;;;;;;;185.45;35.05;;;9.10;99.90;;;;;;5112511;28;20058;-65
2023/03/21 02:58:01;;;;;;;188.85;34.08;;;8.90;99.90;;;;;;5112200;28;20046;-64
2023/03/21 03:00:31;;;;;;;180.63;33.90;;;9.10;99.90;;;;;;5113732;28;20097;-65
2023/03/21 03:02:57;;;;;;;166.60;34.78;;;8.50;99.90;;;;;;5113506;28;20494;-65
2023/03/21 03:05:26;;;;;;;154.23;32.83;;;8.60;99.90;;;;;;5113025;28;20039;-64
2023/03/21 03:08:22;;;;;;;137.27;30.77;;;9.20;99.90;;;;;;5113292;28;20055;-64
2023/03/21 03:11:21;;;;;;;146.05;29.48;;;8.90;99.90;;;;;;5112872;28;20070;-65
2023/03/21 03:14:06;;;;;;;145.75;30.15;;;8.70;99.90;;;;;;5113307;28;20510;-65
2023/03/21 03:16:50;;;;;;;137.15;29.83;;;8.70;99.90;;;;;;5113226;28;20373;-65
2023/03/21 03:19:28;;;;;;;137.10;29.25;;;8.90;99.90;;;;;;5113132;28;20490;-65
2023/03/21 03:22:15;;;;;;;136.57;29.98;;;8.90;99.90;;;;;;5113294;28;20047;-64
2023/03/21 03:24:57;;;;;;;134.10;30.27;;;9.10;99.90;;;;;;5113446;28;20039;-64
2023/03/21 03:27:35;;;;;;;141.23;29.25;;;9.10;99.90;;;;;;5112992;28;20039;-65
2023/03/21 03:30:03;;;;;;;132.02;28.38;;;9.20;99.90;;;;;;5111965;28;20062;-65
2023/03/21 03:32:38;;;;;;;134.75;29.67;;;9.00;99.90;;;;;;5113271;28;20503;-64
2023/03/21 03:35:05;;;;;;;133.82;29.08;;;8.70;99.90;;;;;;5112839;28;20051;-64
2023/03/21 03:37:36;;;;;;;127.15;28.83;;;8.60;99.90;;;;;;5113078;28;20050;-64
2023/03/21 03:40:05;;;;;;;125.40;27.27;;;8.90;99.90;;;;;;5113179;28;20058;-65
2023/03/21 03:42:37;;;;;;;124.72;27.15;;;8.50;99.90;;;;;;5113166;28;20161;-64
2023/03/21 03:45:05;;;;;;;121.13;26.98;;;9.40;99.90;;;;;;5112072;28;20043;-65
2023/03/21 03:47:41;;;;;;;123.28;26.35;;;9.40;99.90;;;;;;5112805;28;20039;-64
2023/03/21 03:50:39;;;;;;;125.70;25.25;;;8.80;99.90;;;;;;5112649;28;20058;-66
2023/03/21 03:53:22;;;;;;;114.57;26.50;;;9.10;99.90;;;;;;5094517;28;20120;-64
2023/03/21 03:55:50;;;;;;;109.72;23.45;;;8.70;99.90;;;;;;5112915;28;20055;-65
2023/03/21 03:58:20;;;;;;;109.57;24.08;;;9.00;99.90;;;;;;5112676;28;20447;-64
2023/03/21 04:00:46;;;;;;;108.97;24.70;;;9.20;99.90;;;;;;5112700;28;20039;-64
2023/03/21 04:03:12;;;;;;;109.47;23.30;;;8.60;99.90;;;;;;5112281;28;20086;-65
2023/03/21 04:05:38;;;;;;;109.85;23.85;;;8.90;99.90;;;;;;5112613;28;20047;-65
2023/03/21 04:08:05;;;;;;;108.35;21.77;;;8.80;99.90;;;;;;5112450;28;20066;-65
2023/03/21 04:10:31;;;;;;;110.68;22.90;;;9.40;99.90;;;;;;5112544;28;20491;-64
2023/03/21 04:12:56;;;;;;;108.05;22.48;;;9.00;99.90;;;;;;5112575;28;20210;-64
2023/03/21 04:15:22;;;;;;;93.57;22.10;;;9.30;99.90;;;;;;5112537;28;20081;-66
2023/03/21 04:17:48;;;;;;;93.50;22.88;;;9.00;99.90;;;;;;5112177;28;20383;-65
2023/03/21 04:20:13;;;;;;;100.95;22.20;;;10.20;99.90;;;;;;5112361;28;20392;-64
2023/03/21 04:22:39;;;;;;;113.03;22.65;;;9.20;99.90;;;;;;5112211;28;20380;-65
2023/03/21 04:25:06;;;;;;;;;;;8.80;99.90;;;;;;5111491;28;20047;-64
2023/03/21 04:27:32;;;;;;;96.45;21.33;;;8.60;99.90;;;;;;5111924;28;20037;-64
2023/03/21 04:29:58;;;;;;;105.10;22.65;;;9.20;99.90;;;;;;5112709;28;20570;-65
2023/03/21 04:32:24;;;;;;;;;;;9.10;99.90;;;;;;5112504;28;20373;-64
2023/03/21 04:34:52;;;;;;;96.53;22.10;;;9.20;99.90;;;;;;5112408;28;19924;-64
2023/03/21 04:37:22;;;;;;;103.63;22.10;;;8.80;99.90;;;;;;5112324;28;20090;-65
2023/03/21 04:39:49;;;;;;;107.20;22.45;;;9.10;99.90;;;;;;5112212;28;20051;-64
2023/03/21 04:42:17;;;;;;;101.68;22.58;;;8.70;99.90;;;;;;5112233;28;20446;-65
2023/03/21 04:44:47;;;;;;;113.80;23.33;;;8.70;99.90;;;;;;5111126;28;20094;-65
2023/03/21 04:47:14;;;;;;;116.93;23.35;;;9.20;99.90;;;;;;5111839;28;20044;-65
2023/03/21 04:49:44;;;;;;;108.28;22.20;;;9.00;99.90;;;;;;5112171;28;20564;-66
2023/03/21 04:52:10;;;;;;;99.97;22.73;;;8.70;99.90;;;;;;5111088;28;20134;-64
2023/03/21 04:54:36;;;;;;;112.50;24.17;;;9.10;99.90;;;;;;5112103;28;20182;-65
2023/03/21 04:57:03;;;;;;;;;;;9.30;99.90;;;;;;5112514;28;20059;-64
2023/03/21 04:59:29;;;;;;;101.63;22.38;;;8.50;99.90;;;;;;5145101;27;19919;-64
2023/03/21 05:01:57;;;;;;;97.93;22.55;;;9.10;99.90;;;;;;5111761;28;20044;-64
2023/03/21 05:04:25;;;;;;;118.53;23.65;;;9.20;99.90;;;;;;5111920;28;20087;-65
2023/03/21 05:06:52;;;;;;;99.45;22.58;;;9.30;99.90;;;;;;5111884;28;20043;-63
2023/03/21 05:09:17;;;;;;;102.28;21.85;;;9.50;99.90;;;;;;5111923;28;20079;-65
2023/03/21 05:11:43;;;;;;;114.90;21.30;;;8.90;99.90;;;;;;5110924;28;20519;-64
2023/03/21 05:14:13;;;;;;;89.97;19.63;;;9.30;99.90;;;;;;5111988;28;20491;-64
2023/03/21 05:16:43;;;;;;;96.93;20.20;;;8.60;99.90;;;;;;5110450;28;20135;-64
2023/03/21 05:19:12;;;;;;;94.50;19.77;;;9.20;99.90;;;;;;5111973;28;20044;-64
2023/03/21 05:21:41;;;;;;;87.03;19.30;;;9.40;99.90;;;;;;5111825;28;20047;-65
2023/03/21 05:24:11;;;;;;;88.03;19.20;;;9.20;99.90;;;;;;5111763;28;20040;-63
2023/03/21 05:26:40;;;;;;;98.68;18.58;;;9.60;99.90;;;;;;5111425;28;20556;-63
2023/03/21 05:29:07;;;;;;;91.60;19.05;;;;;;;;;;5111643;28;20058;-63
2023/03/21 05:31:32;;;;;;;;;;;9.00;99.90;;;;;;5112022;28;20501;-63
2023/03/21 05:33:58;;;;;;;88.18;18.52;;;8.90;99.90;;;;;;5111327;28;19924;-65
2023/03/21 05:36:24;;;;;;;83.40;18.67;;;8.80;99.90;;;;;;5115532;28;20585;-64
2023/03/21 05:38:50;;;;;;;92.18;20.80;;;9.20;99.90;;;;;;5115558;28;20048;-64
2023/03/21 05:41:16;;;;;;;101.32;20.95;;;9.00;99.90;;;;;;5115677;28;20126;-64
2023/03/21 05:43:42;;;;;;;101.38;20.30;;;9.20;99.90;;;;;;5115381;28;20049;-64
2023/03/21 05:46:09;;;;;;;83.55;18.73;;;8.80;99.90;;;;;;5113945;28;20200;-64
2023/03/21 05:48:35;;;;;;;101.65;19.63;;;9.20;99.90;;;;;;5115080;28;20087;-64
2023/03/21 05:51:02;;;;;;;86.03;19.23;;;8.80;99.90;;;;;;5115251;28;20367;-64
2023/03/21 05:53:28;;;;;;;84.55;18.83;;;9.20;99.90;;;;;;5115173;28;20134;-66
2023/03/21 05:55:54;;;;;;;83.45;18.75;;;9.20;99.90;;;;;;5114145;28;20135;-67
2023/03/21 05:58:20;;;;;;;79.47;19.05;;;9.30;99.90;;;;;;5115076;28;20044;-65
2023/03/21 06:00:45;;;;;;;77.53;18.50;;;8.90;99.90;;;;;;5113427;28;20039;-65
2023/03/21 06:03:11;;;;;;;75.35;17.35;;;9.30;99.90;;;;;;5114618;28;20047;-64
2023/03/21 06:05:37;;;;;;;67.85;17.13;;;8.80;99.90;;;;;;5114904;28;20502;-64
2023/03/21 06:08:03;;;;;;;58.88;16.45;;;9.30;99.90;;;;;;5114511;28;20043;-64
2023/03/21 06:10:29;;;;;;;70.43;17.63;;;9.40;99.90;;;;;;5113528;28;20051;-65
2023/03/21 06:12:54;;;;;;;73.20;19.42;;;8.70;99.90;;;;;;5114806;28;20043;-64
2023/03/21 06:15:20;;;;;;;66.90;17.80;;;9.30;99.90;;;;;;5114483;28;20058;-65
2023/03/21 06:17:46;;;;;;;85.30;19.58;;;9.50;99.90;;;;;;5113519;28;20449;-64
2023/03/21 06:20:12;;;;;;;72.97;18.52;;;9.20;99.90;;;;;;5114541;28;20050;-64
2023/03/21 06:22:38;;;;;;;66.20;18.65;;;9.60;99.90;;;;;;5114521;28;20040;-63
2023/03/21 06:25:06;;;;;;;62.10;17.75;;;9.40;99.90;;;;;;5114473;28;20122;-64
2023/03/21 06:27:33;;;;;;;69.65;18.23;;;9.30;99.90;;;;;;5114145;28;20048;-64
2023/03/21 06:29:59;;;;;;;56.38;16.85;;;8.80;99.90;;;;;;5114229;28;20059;-66
2023/03/21 06:32:25;;;;;;;62.80;18.23;;;9.00;99.90;;;;;;5114414;28;20365;-65
2023/03/21 06:34:51;;;;;;;57.10;16.92;;;9.50;99.90;;;;;;5114368;28;20146;-65
2023/03/21 06:37:17;;;;;;;;;;;9.60;99.90;;;;;;5114757;27;20071;-65
2023/03/21 06:39:43;;;;;;;57.45;16.63;;;8.90;99.90;;;;;;5114213;28;20371;-65
2023/03/21 06:42:09;;;;;;;71.15;19.73;;;9.10;99.90;;;;;;5113976;28;20055;-65
2023/03/21 06:44:35;;;;;;;62.20;16.85;;;9.00;99.90;;;;;;5113815;28;20048;-65
2023/03/21 06:47:00;;;;;;;56.45;16.30;;;9.00;99.90;;;;;;5113982;28;20059;-64
2023/03/21 06:49:26;;;;;;;57.63;16.58;;;9.00;99.90;;;;;;5114168;27;20047;-64
2023/03/21 06:51:52;;;;;;;56.97;16.40;;;9.20;99.90;;;;;;5114037;28;20043;-67
2023/03/21 06:54:19;;;;;;;55.83;16.55;;;9.60;99.90;;;;;;5113995;27;20044;-64
2023/03/21 06:56:45;;;;;;;;;;;9.60;99.90;;;;;;5114079;28;20043;-65
2023/03/21 06:59:11;;;;;;;56.40;16.80;;;9.20;99.90;;;;;;5113821;28;19949;-64
2023/03/21 07:01:36;;;;;;;54.35;16.85;;;9.20;99.90;;;;;;5113790;28;20040;-64
2023/03/21 07:04:03;;;;;;;58.78;17.20;;;9.80;99.90;;;;;;5113745;28;20039;-63
2023/03/21 07:06:29;;;;;;;66.35;17.38;;;9.70;99.90;;;;;;5112364;28;20661;-64
2023/03/21 07:08:55;;;;;;;57.97;16.77;;;9.80;99.90;;;;;;5113844;28;20082;-64
2023/03/21 07:11:22;;;;;;;64.63;17.70;;;9.30;99.90;;;;;;5113341;28;20082;-64
2023/03/21 07:13:48;;;;;;;54.17;16.65;;;9.40;99.90;;;;;;5113577;28;20051;-63
2023/03/21 07:16:15;;;;;;;51.40;16.48;;;9.80;99.90;;;;;;5113527;28;20047;-63
2023/03/21 07:18:41;;;;;;;49.75;15.45;;;9.70;99.90;;;;;;5113461;28;20416;-64
2023/03/21 07:21:08;;;;;;;46.55;16.17;;;9.20;99.90;;;;;;5113366;28;20130;-63
2023/03/21 07:23:33;;;;;;;;;;;9.40;99.90;;;;;;5114138;28;20112;-64
2023/03/21 07:26:00;;;;;;;46.55;15.32;;;9.60;99.90;;;;;;5113024;28;20372;-64
2023/03/21 07:28:26;;;;;;;50.55;17.30;;;9.60;99.90;;;;;;5112937;28;20547;-63
2023/03/21 07:30:55;;;;;;;46.63;16.17;;;9.80;99.90;;;;;;5113160;28;20499;-64
2023/03/21 07:33:22;;;;;;;50.00;16.25;;;9.90;99.90;;;;;;5113155;28;20047;-64
2023/03/21 07:35:51;;;;;;;45.47;15.43;;;11.40;99.90;;;;;;5113311;28;20051;-63
2023/03/21 07:38:18;;;;;;;46.55;15.90;;;9.40;99.90;;;;;;5111221;28;20503;-70
2023/03/21 07:40:45;;;;;;;51.28;17.50;;;9.60;99.90;;;;;;5104880;27;20051;-64
2023/03/21 07:43:11;;;;;;;48.97;16.17;;;9.80;99.90;;;;;;5112427;28;20058;-64
2023/03/21 07:45:37;;;;;;;52.90;16.98;;;9.90;99.90;;;;;;5112690;28;20047;-63
2023/03/21 07:48:03;;;;;;;45.45;17.27;;;9.30;99.90;;;;;;5112212;28;20050;-63
2023/03/21 07:50:29;;;;;;;44.63;17.08;;;9.30;99.90;;;;;;5112510;28;20097;-64
2023/03/21 07:52:54;;;;;;;47.65;17.10;;;9.60;99.90;;;;;;5111547;28;20798;-64
2023/03/21 07:55:20;;;;;;;46.53;16.77;;;9.90;99.90;;;;;;5111386;28;20049;-63
2023/03/21 07:57:50;;;;;;;46.92;16.45;;;10.00;99.90;;;;;;5112191;28;20073;-65
2023/03/21 08:00:22;;;;;;;45.67;17.13;;;9.70;99.90;;;;;;5112407;28;20044;-65
2023/03/21 08:02:53;;;;;;;41.42;16.35;;;9.80;99.90;;;;;;5111981;28;20044;-63
2023/03/21 08:05:23;;;;;;;40.15;15.60;;;9.30;99.90;;;;;;5112309;28;20052;-64
2023/03/21 08:07:50;;;;;;;36.83;15.48;;;10.00;99.90;;;;;;5112474;28;20031;-64
2023/03/21 08:10:17;;;;;;;39.10;15.88;;;9.50;99.90;;;;;;5111231;28;20062;-65
2023/03/21 08:12:43;;;;;;;41.03;15.75;;;9.90;99.90;;;;;;5112393;28;20094;-65
2023/03/21 08:15:09;;;;;;;46.30;17.08;;;9.60;99.90;;;;;;5112234;28;20051;-64
2023/03/21 08:17:38;;;;;;;;;;;9.30;99.90;;;;;;5112218;28;20039;-64
2023/03/21 08:20:10;;;;;;;34.25;14.82;;;9.80;99.90;;;;;;5112128;28;19919;-64
2023/03/21 08:22:37;;;;;;;36.47;14.82;;;9.80;99.90;;;;;;5112322;28;20050;-65
2023/03/21 08:25:04;;;;;;;36.38;15.77;;;10.00;99.90;;;;;;5109776;28;20047;-66
2023/03/21 08:27:31;;;;;;;34.97;15.38;;;9.80;99.90;;;;;;5112020;28;20392;-65
2023/03/21 08:29:58;;;;;;;31.38;14.73;;;9.90;99.90;;;;;;5112158;28;20118;-65
2023/03/21 08:32:30;;;;;;;27.65;12.93;;;9.60;99.90;;;;;;5111628;28;20047;-65
2023/03/21 08:35:03;;;;;;;31.65;14.13;;;9.90;99.90;;;;;;5112023;28;20080;-65
2023/03/21 08:37:29;;;;;;;30.33;13.00;;;10.30;99.90;;;;;;5110766;28;20059;-65
2023/03/21 08:39:55;;;;;;;27.38;13.73;;;9.40;99.90;;;;;;5093112;28;20043;-65
2023/03/21 08:42:21;;;;;;;29.52;13.60;;;9.80;99.90;;;;;;5112127;28;20047;-66
2023/03/21 08:44:48;;;;;;;30.50;13.75;;;9.80;99.90;;;;;;5111904;28;20043;-65
2023/03/21 08:47:14;;;;;;;28.58;12.65;;;10.10;99.90;;;;;;5111430;28;20046;-66
2023/03/21 08:49:41;;;;;;;23.80;13.38;;;10.00;99.90;;;;;;5111898;28;20178;-65
2023/03/21 08:52:07;;;;;;;26.88;14.30;;;9.60;99.90;;;;;;5112046;28;20054;-65
2023/03/21 08:54:32;;;;;;;27.95;14.45;;;9.50;99.90;;;;;;5110873;28;20039;-64
2023/03/21 08:56:58;;;;;;;31.65;15.45;;;10.10;99.90;;;;;;5109252;28;20042;-65
2023/03/21 08:59:24;;;;;;;26.88;15.52;;;9.90;99.90;;;;;;5110443;28;20051;-65
2023/03/21 09:01:50;;;;;;;29.38;15.68;;;9.80;99.90;;;;;;5111274;28;20399;-66
2023/03/21 09:04:17;;;;;;;31.42;15.93;;;9.80;99.90;;;;;;5111435;28;20054;-64
2023/03/21 09:06:47;;;;;;;28.27;15.77;;;10.20;99.90;;;;;;5111962;28;20051;-65
2023/03/21 09:09:14;;;;;;;29.67;16.08;;;10.00;99.90;;;;;;5112822;28;20043;-64
2023/03/21 09:11:40;;;;;;;34.58;16.55;;;10.20;99.90;;;;;;5114554;28;20126;-66
2023/03/21 09:14:06;;;;;;;31.02;16.88;;;9.80;99.90;;;;;;5114807;28;20163;-66
2023/03/21 09:16:32;;;;;;;31.25;17.90;;;9.80;99.90;;;;;;5110000;27;20499;-66
2023/03/21 09:18:58;;;;;;;37.45;17.38;;;9.90;99.90;;;;;;5115502;28;20055;-65
2023/03/21 09:21:26;;;;;;;32.88;18.60;;;10.40;99.90;;;;;;5114651;28;20365;-65
2023/03/21 09:23:54;;;;;;;31.38;17.80;;;10.20;99.90;;;;;;5115149;28;20108;-67
2023/03/21 09:26:20;;;;;;;35.58;18.75;;;10.00;99.90;;;;;;5114272;28;20051;-66
2023/03/21 09:28:46;;;;;;;38.65;19.67;;;9.70;99.90;;;;;;5115003;28;20063;-67
2023/03/21 09:31:15;;;;;;;38.15;21.70;;;9.90;99.90;;;;;;5114782;28;20469;-66
2023/03/21 09:33:42;;;;;;;42.85;22.30;;;10.50;99.90;;;;;;5115439;28;20084;-66
2023/03/21 09:36:10;;;;;;;48.95;24.45;;;9.90;99.90;;;;;;5114370;28;20465;-66
2023/03/21 09:38:39;;;;;;;42.78;24.15;;;10.40;99.90;;;;;;5115026;28;20044;-67
2023/03/21 09:41:28;;;;;;;49.38;25.55;;;9.80;99.90;;;;;;5114025;28;20073;-66
2023/03/21 09:44:13;;;;;;;42.95;24.35;;;10.50;99.90;;;;;;5115119;27;20062;-66
2023/03/21 09:46:53;;;;;;;45.92;25.30;;;10.10;99.90;;;;;;5114378;28;20043;-68
2023/03/21 09:49:35;;;;;;;42.58;25.13;;;10.10;99.90;;;;;;5115124;28;20047;-68
2023/03/21 09:52:08;;;;;;;41.53;25.23;;;10.30;99.90;;;;;;5113579;28;20418;-68
2023/03/21 09:54:41;;;;;;;43.05;23.60;;;10.30;99.90;;;;;;5114910;28;20139;-68
2023/03/21 09:57:38;;;;;;;39.22;21.58;;;9.90;99.90;;;;;;5114816;28;20506;-69
2023/03/21 10:00:14;;;;;;;33.77;21.60;;;10.00;99.90;;;;;;5113802;28;20065;-68
2023/03/21 10:02:48;;;;;;;38.17;20.88;;;10.20;99.90;;;;;;5114691;28;20621;-68
2023/03/21 10:05:23;;;;;;;38.95;20.95;;;9.90;99.90;;;;;;5113505;28;20094;-68
2023/03/21 10:08:03;;;;;;;37.42;21.08;;;10.40;99.90;;;;;;5112837;28;20081;-69
2023/03/21 10:10:38;;;;;;;39.50;22.33;;;9.90;99.90;;;;;;5101045;28;20054;-67
2023/03/21 10:13:12;;;;;;;43.03;24.20;;;9.90;99.90;;;;;;5114658;28;20055;-67
2023/03/21 10:15:38;;;;;;;37.45;23.50;;;10.20;99.90;;;;;;5109044;27;20507;-67
2023/03/21 10:18:12;;;;;;;37.58;24.17;;;10.00;99.90;;;;;;5111692;28;20047;-67
2023/03/21 10:20:41;;;;;;;42.92;24.98;;;9.80;99.90;;;;;;5111142;27;20131;-72
2023/03/21 10:23:12;;;;;;;45.28;24.90;;;9.70;99.90;;;;;;5107388;27;20035;-66
2023/03/21 10:26:07;;;;;;;42.80;24.98;;;10.00;99.90;;;;;;5112778;28;20043;-66
2023/03/21 10:28:38;;;;;;;43.38;24.38;;;9.90;99.90;;;;;;5094658;28;20047;-65
2023/03/21 10:31:08;;;;;;;45.95;24.25;;;9.90;99.90;;;;;;5112114;27;20609;-70
2023/03/21 10:33:43;;;;;;;41.10;23.17;;;9.90;99.90;;;;;;5111892;28;20039;-65
2023/03/21 10:36:16;;;;;;;45.83;24.75;;;10.30;99.90;;;;;;5111774;28;20040;-66
2023/03/21 10:38:50;;;;;;;41.20;23.92;;;10.20;99.90;;;;;;5112983;28;20043;-67
2023/03/21 10:41:16;;;;;;;38.88;21.67;;;10.30;99.90;;;;;;5111701;28;20588;-67
2023/03/21 10:43:44;;;;;;;34.33;19.20;;;10.20;99.90;;;;;;5112179;27;20150;-66
2023/03/21 10:46:19;;;;;;;36.10;18.58;;;10.20;99.90;;;;;;5112088;28;20048;-66
2023/03/21 10:48:51;;;;;;;28.27;17.15;;;10.00;99.90;;;;;;5112396;28;20161;-67
2023/03/21 10:51:24;;;;;;;25.55;15.95;;;10.60;99.90;;;;;;5111722;28;20036;-63
2023/03/21 10:53:56;;;;;;;28.40;15.75;;;10.30;99.90;;;;;;5111113;28;20062;-67
2023/03/21 10:56:26;;;;;;;26.88;14.68;;;10.70;99.90;;;;;;5112898;28;20058;-67
2023/03/21 10:58:54;;;;;;;27.65;15.88;;;10.20;99.90;;;;;;5112957;28;20105;-64
2023/03/21 11:01:29;;;;;;;22.65;15.07;;;11.00;99.90;;;;;;5112116;28;20511;-65
2023/03/21 11:03:59;;;;;;;27.70;15.82;;;10.90;99.90;;;;;;5112273;28;20051;-66
2023/03/21 11:06:27;;;;;;;24.02;15.85;;;11.00;99.90;;;;;;5113692;28;20109;-65
2023/03/21 11:09:19;;;;;;;32.03;15.73;;;10.90;99.90;;;;;;5113682;28;20051;-66
2023/03/21 11:12:09;;;;;;;26.08;16.80;;;10.70;99.90;;;;;;5101057;28;20051;-66
2023/03/21 11:14:56;;;;;;;23.08;15.90;;;11.20;99.90;;;;;;5113677;28;20050;-66
2023/03/21 11:17:32;;;;;;;28.93;15.50;;;11.10;99.90;;;;;;5095677;28;20056;-65
2023/03/21 11:20:08;;;;;;;25.50;15.43;;;11.30;99.90;;;;;;5113286;28;20316;-66
2023/03/21 11:22:42;;;;;;;27.75;14.63;;;11.00;99.90;;;;;;5113584;28;20035;-66
2023/03/21 11:25:19;;;;;;;24.92;14.27;;;10.90;99.90;;;;;;5112175;28;20050;-66
2023/03/21 11:27:50;;;;;;;23.20;14.63;;;11.50;99.90;;;;;;5113245;28;20079;-66
2023/03/21 11:30:26;;;;;;;21.52;14.02;;;11.10;99.90;;;;;;5113731;28;20108;-66
2023/03/21 11:33:05;;;;;;;21.60;14.07;;;11.40;99.90;;;;;;5112585;28;20126;-66
2023/03/21 11:35:38;;;;;;;22.30;12.30;;;11.40;99.90;;;;;;5113404;28;20043;-65
2023/03/21 11:38:06;;;;;;;20.45;12.27;;;11.40;99.90;;;;;;5112920;28;20051;-66
2023/03/21 11:40:34;;;;;;;22.23;11.55;;;11.50;99.90;;;;;;5113172;28;20059;-65
2023/03/21 11:43:02;;;;;;;21.70;11.77;;;11.70;99.90;;;;;;5113116;27;20100;-65
2023/03/21 11:45:31;;;;;;;22.05;11.55;;;11.50;99.90;;;;;;5112902;28;20506;-67
2023/03/21 11:47:59;;;;;;;18.83;11.30;;;11.70;99.90;;;;;;5112592;28;20126;-65
2023/03/21 11:50:38;;;;;;;19.98;11.73;;;11.50;99.90;;;;;;5111925;28;20055;-65
2023/03/21 11:53:39;;;;;;;18.02;11.15;;;11.90;99.90;;;;;;5113178;28;20062;-67
2023/03/21 11:56:08;;;;;;;21.35;11.73;;;12.00;99.90;;;;;;5112949;28;20134;-66
2023/03/21 11:58:52;;;;;;;21.83;11.75;;;11.80;99.90;;;;;;5113110;28;20502;-65
2023/03/21 12:01:37;;;;;;;20.98;11.13;;;11.50;99.90;;;;;;5112524;28;20122;-65
2023/03/21 12:04:11;;;;;;;18.52;12.05;;;11.10;99.90;;;;;;5111754;28;20183;-64
2023/03/21 12:06:44;;;;;;;21.70;12.30;;;11.40;99.90;;;;;;5106956;28;20036;-65
2023/03/21 12:09:19;;;;;;;20.65;12.13;;;11.40;99.90;;;;;;5110390;28;20449;-66
2023/03/21 12:11:54;;;;;;;19.45;12.68;;;11.40;99.90;;;;;;5112530;28;20043;-68
2023/03/21 12:14:33;;;;;;;20.60;12.25;;;11.30;99.90;;;;;;5111109;28;20074;-64
2023/03/21 12:17:17;;;;;;;20.90;12.18;;;11.40;99.90;;;;;;5110959;28;20066;-64
2023/03/21 12:20:20;;;;;;;18.17;12.10;;;11.50;99.90;;;;;;5112100;28;20047;-64
2023/03/21 12:23:03;;;;;;;19.02;12.15;;;11.60;99.90;;;;;;5111574;28;20475;-66
2023/03/21 12:25:45;;;;;;;21.30;11.90;;;11.20;99.90;;;;;;5091762;28;20084;-67
2023/03/21 12:28:46;;;;;;;23.42;12.05;;;11.40;99.90;;;;;;5092748;28;20091;-64
2023/03/21 12:31:28;;;;;;;24.38;13.57;;;10.90;99.90;;;;;;5110144;28;20061;-65
2023/03/21 12:34:15;;;;;;;24.30;12.50;;;11.00;99.90;;;;;;5111215;28;20048;-64
2023/03/21 12:36:58;;;;;;;22.15;12.35;;;11.40;99.90;;;;;;5111182;28;20051;-65
2023/03/21 12:39:37;;;;;;;25.63;13.20;;;11.30;99.90;;;;;;5111359;28;20104;-67
2023/03/21 12:42:12;;;;;;;24.48;13.38;;;11.40;99.90;;;;;;5111560;28;20055;-67
2023/03/21 12:44:48;;;;;;;21.30;14.05;;;11.10;99.90;;;;;;5111222;28;20051;-65
2023/03/21 12:47:24;;;;;;;25.85;13.75;;;11.20;99.90;;;;;;5114806;28;20047;-67
2023/03/21 12:49:53;;;;;;;27.92;14.48;;;11.60;99.90;;;;;;5111955;27;20043;-66
2023/03/21 12:52:22;;;;;;;25.40;14.00;;;11.30;99.90;;;;;;5098264;28;20048;-66
2023/03/21 12:54:53;;;;;;;23.67;13.30;;;11.50;99.90;;;;;;5115628;28;20058;-65